TimeMST,TemperatureF,Dew PointF,Humidity,Sea Level PressureIn,VisibilityMPH,Wind Direction,Wind SpeedMPH,Gust SpeedMPH,PrecipitationIn,Events,Conditions,WindDirDegrees,DateUTC
12:54 AM,33.1,27.0,78,29.99,10.0,South,4.6,-,N/A,,Clear,170,2013-10-11 07:54:00
1:54 AM,32.0,26.1,79,29.99,10.0,Calm,Calm,-,N/A,,Clear,0,2013-10-11 08:54:00
2:54 AM,30.9,25.0,79,30.00,10.0,SE,3.5,-,N/A,,Clear,140,2013-10-11 09:54:00
3:54 AM,27.0,23.0,85,30.02,10.0,Calm,Calm,-,N/A,,Clear,0,2013-10-11 10:54:00
4:54 AM,28.0,23.0,81,30.03,10.0,Calm,Calm,-,N/A,,Clear,0,2013-10-11 11:54:00
5:54 AM,28.0,23.0,81,30.04,10.0,South,3.5,-,N/A,,Clear,170,2013-10-11 12:54:00
6:54 AM,30.0,24.1,79,30.06,10.0,Calm,Calm,-,N/A,,Clear,0,2013-10-11 13:54:00
7:54 AM,35.1,27.0,72,30.07,10.0,North,3.5,-,N/A,,Clear,360,2013-10-11 14:54:00
8:54 AM,39.9,28.0,63,30.08,10.0,Variable,4.6,-,N/A,,Clear,0,2013-10-11 15:54:00
9:54 AM,46.0,30.0,54,30.06,10.0,NNW,6.9,-,N/A,,Clear,340,2013-10-11 16:54:00
10:54 AM,51.1,30.0,44,30.04,10.0,NNW,5.8,-,N/A,,Clear,330,2013-10-11 17:54:00
11:54 AM,52.0,28.0,40,30.02,10.0,West,8.1,-,N/A,,Clear,260,2013-10-11 18:54:00
12:54 PM,55.0,28.9,37,29.99,10.0,Variable,6.9,-,N/A,,Clear,0,2013-10-11 19:54:00
1:54 PM,57.0,25.0,29,29.98,10.0,Variable,6.9,-,N/A,,Clear,0,2013-10-11 20:54:00
2:54 PM,59.0,24.1,26,29.98,10.0,WNW,9.2,18.4,N/A,,Clear,290,2013-10-11 21:54:00
3:54 PM,59.0,21.0,23,29.99,10.0,NW,10.4,17.3,N/A,,Clear,320,2013-10-11 22:54:00
4:54 PM,57.9,19.9,23,29.99,10.0,NW,9.2,-,N/A,,Clear,320,2013-10-11 23:54:00
5:54 PM,54.0,21.9,29,30.01,10.0,NNW,3.5,-,N/A,,Clear,340,2013-10-12 00:54:00
6:54 PM,46.0,23.0,40,30.04,10.0,Calm,Calm,-,N/A,,Clear,0,2013-10-12 01:54:00
7:54 PM,44.1,23.0,43,30.04,9.0,Calm,Calm,-,N/A,,Clear,0,2013-10-12 02:54:00
8:54 PM,41.0,23.0,49,30.05,10.0,Calm,Calm,-,N/A,,Clear,0,2013-10-12 03:54:00
9:54 PM,39.9,21.9,49,30.04,10.0,South,5.8,-,N/A,,Clear,170,2013-10-12 04:54:00
10:54 PM,41.0,25.0,53,30.02,10.0,South,4.6,-,N/A,,Clear,180,2013-10-12 05:54:00
11:54 PM,39.9,25.0,55,30.02,10.0,SSE,5.8,-,N/A,,Clear,160,2013-10-12 06:54:00